Flight Track Log - Related Links

Times and Time Zones

All times are in EST time to prevent confusion due to time zone crossing. See the DAL1578 flight status page for this flight to view local times or setup timezone preferences in your user account.


Time Position Orientation Groundspeed Altitude Reporting Facility
EST Latitude Longitude Course Direction KTS MPH feet Rate Location/Type
Tue 12:47:50 PM 39.8000 -104.6333 111° Southeast 187 215 7,400  Level Denver TRACON
Tue 12:48:51 PM 39.7667 -104.5667 123° Southeast 267 307 9,300 1,835 Climbing Denver TRACON
Tue 12:49:51 PM 39.7333 -104.4667 113° Southeast 323 372 11,100 1,450 Climbing Denver TRACON
Tue 12:50:00 PM 39.7625 -104.1855 113° Southeast  Level Estimated
Tue 12:50:51 PM 39.7167 -104.3500 100° East 363 418 12,200  Level Denver TRACON
Tue 12:51:00 PM 39.7289 -104.0233 107° East  Level Estimated
Tue 12:52:00 PM 39.6658 -103.8768 119° Southeast  Level FlightAware Approximate
Tue 12:52:13 PM 39.6733 -104.1617 107° East 381 438 16,100  Level Denver Center
Tue 12:53:00 PM 39.6321 -103.7149 111° Southeast  Level Estimated
Tue 12:53:15 PM 39.6417 -104.0233 107° East 402 463 18,200  Level Denver Center
Tue 12:54:17 PM 39.6086 -103.8703 106° East 412 474 20,900 2,371 Climbing Denver Center
Tue 12:55:19 PM 39.5769 -103.7353 107° East 414 476 23,100 1,935 Climbing Denver Center
Tue 12:56:21 PM 39.5375 -103.5900 109° East 423 487 24,900 1,839 Climbing Denver Center
Tue 12:57:23 PM 39.4969 -103.4369 109° East 446 513 26,900 1,887 Climbing Denver Center
Tue 12:58:25 PM 39.4492 -103.2522 108° East 453 521 28,800 1,968 Climbing Denver Center
Tue 12:59:28 PM 39.4083 -103.0997 109° East 450 518 31,000 1,872 Climbing Denver Center
Tue 01:00:30 PM 39.3678 -102.9481 109° East 447 514 32,700 1,597 Climbing Denver Center
Tue 01:01:32 PM 39.3278 -102.7989 109° East 443 510 34,300 1,694 Climbing Denver Center
Tue 01:02:34 PM 39.2814 -102.6347 110° East 443 510 36,200 1,210 Climbing Denver Center
Tue 01:03:36 PM 39.2433 -102.4931 109° East 438 504 36,800 774 Climbing Denver Center
Tue 01:04:38 PM 39.1969 -102.3214 109° East 452 520 37,800 823 Climbing Denver Center
Tue 01:05:40 PM 39.1561 -102.1747 110° East 454 522 38,500 581 Climbing Denver Center
Tue 01:06:42 PM 39.1072 -101.9981 110° East 466 536 39,000 242 Climbing Denver Center
Tue 01:07:44 PM 39.0639 -101.8442 110° East 475 547 39,000  Level Denver Center
Tue 01:08:47 PM 39.0108 -101.6642 111° Southeast 480 552 39,000  Level Denver Center
Tue 01:09:49 PM 38.9664 -101.5092 110° East 483 556 39,000 -484 Level Denver Center
Tue 01:10:51 PM 38.9142 -101.3289 110° East 482 555 38,000 -871 Descending Denver Center
Tue 01:11:53 PM 38.8706 -101.1775 110° East 476 548 37,200 -484 Descending Denver Center
Tue 01:12:55 PM 38.8203 -101.0056 111° Southeast 466 536 37,000 -97 Descending Denver Center
Tue 01:13:57 PM 38.7758 -100.8619 112° Southeast 456 525 37,000  Level Denver Center
Tue 01:14:59 PM 38.7025 -100.7317 126° Southeast 469 540 37,000  Level Denver Center
Tue 01:16:01 PM 38.6175 -100.5817 126° Southeast 467 537 37,000  Level Denver Center
Tue 01:16:39 PM 38.5689 -100.4961 126° Southeast 462 532 37,000  Level Kansas City Center
Tue 01:17:41 PM 38.4983 -100.3672 125° Southeast 460 529 37,000  Level Kansas City Center
Tue 01:18:43 PM 38.4164 -100.2150 124° Southeast 463 533 37,000  Level Kansas City Center
Tue 01:19:45 PM 38.3442 -100.0844 125° Southeast 468 539 37,000  Level Kansas City Center
Tue 01:20:47 PM 38.2625 -99.9303 124° Southeast 469 540 37,000  Level Kansas City Center
Tue 01:21:49 PM 38.1936 -99.7972 123° Southeast 469 540 37,000  Level Kansas City Center
Tue 01:22:51 PM 38.1286 -99.6275 116° Southeast 477 549 37,000  Level Kansas City Center
Tue 01:23:54 PM 38.0839 -99.4769 111° Southeast 474 545 37,000  Level Kansas City Center
Tue 01:24:56 PM 38.0336 -99.3214 112° Southeast 475 547 37,000  Level Kansas City Center
Tue 01:25:58 PM 37.9850 -99.1661 112° Southeast 476 548 37,000  Level Kansas City Center
Tue 01:27:00 PM 37.9375 -99.0103 111° Southeast 476 548 37,000  Level Kansas City Center
Tue 01:28:02 PM 37.8872 -98.8553 112° Southeast 476 548 37,000  Level Kansas City Center
Tue 01:29:04 PM 37.8294 -98.6708 112° Southeast 474 545 37,000  Level Kansas City Center
Tue 01:30:06 PM 37.7794 -98.5153 112° Southeast 478 550 37,000  Level Kansas City Center
Tue 01:31:08 PM 37.7300 -98.3603 112° Southeast 479 551 37,000  Level Kansas City Center
Tue 01:32:10 PM 37.6792 -98.2067 113° Southeast 478 550 37,000  Level Kansas City Center
Tue 01:33:12 PM 37.6228 -98.0378 113° Southeast 482 555 37,000  Level Kansas City Center
Tue 01:34:14 PM 37.5658 -97.8667 113° Southeast 484 557 37,000  Level Kansas City Center
Tue 01:35:16 PM 37.5164 -97.7111 112° Southeast 484 557 37,000  Level Kansas City Center
Tue 01:36:18 PM 37.4644 -97.5550 113° Southeast 484 557 37,000  Level Kansas City Center
Tue 01:37:20 PM 37.4128 -97.4003 113° Southeast 484 557 37,000  Level Kansas City Center
Tue 01:38:22 PM 37.3600 -97.2467 113° Southeast 480 552 37,000  Level Kansas City Center
Tue 01:39:24 PM 37.2947 -97.0592 114° Southeast 487 560 37,000  Level Kansas City Center
Tue 01:40:26 PM 37.2428 -96.9019 112° Southeast 488 562 37,000  Level Kansas City Center
Tue 01:41:28 PM 37.1894 -96.7464 113° Southeast 487 560 37,000  Level Kansas City Center
Tue 01:42:30 PM 37.1347 -96.5889 114° Southeast 490 564 37,000  Level Kansas City Center
Tue 01:43:32 PM 37.0828 -96.4347 113° Southeast 485 558 37,000  Level Kansas City Center
Tue 01:44:34 PM 37.0167 -96.2464 114° Southeast 488 562 37,000  Level Kansas City Center
Tue 01:45:37 PM 36.9619 -96.0886 113° Southeast 490 564 37,000  Level Kansas City Center
Tue 01:46:39 PM 36.9064 -95.9311 114° Southeast 492 566 37,000  Level Kansas City Center
Tue 01:47:41 PM 36.8511 -95.7742 114° Southeast 492 566 37,000  Level Kansas City Center
Tue 01:48:43 PM 36.7942 -95.6147 114° Southeast 496 571 37,000  Level Kansas City Center
Tue 01:49:45 PM 36.7369 -95.4553 114° Southeast 497 572 37,000  Level Kansas City Center
Tue 01:50:47 PM 36.6789 -95.2933 114° Southeast 500 575 37,000  Level Kansas City Center
Tue 01:51:49 PM 36.6194 -95.1319 115° Southeast 504 580 37,000  Level Kansas City Center
Tue 01:52:51 PM 36.5600 -94.9694 114° Southeast 508 585 37,000  Level Kansas City Center
Tue 01:53:53 PM 36.4881 -94.7778 115° Southeast 505 581 37,000  Level Kansas City Center
Tue 01:54:55 PM 36.4300 -94.6178 114° Southeast 505 581 37,000  Level Kansas City Center
Tue 01:55:57 PM 36.3703 -94.4558 115° Southeast 508 585 37,000  Level Kansas City Center
Tue 01:56:41 PM 36.3347 -94.3594 115° Southeast 512 589 37,000  Level Memphis Center
Tue 01:57:43 PM 36.2617 -94.1642 115° Southeast 516 594 37,000  Level Memphis Center
Tue 01:58:45 PM 36.2069 -93.9975 112° Southeast 519 597 37,000  Level Memphis Center
Tue 01:59:47 PM 36.1611 -93.8283 109° East 520 598 37,000  Level Memphis Center
Tue 02:00:49 PM 36.1161 -93.6578 108° East 520 598 37,000  Level Memphis Center
Tue 02:01:51 PM 36.0686 -93.4864 109° East 522 601 37,000  Level Memphis Center
Tue 02:02:53 PM 36.0203 -93.3172 109° East 523 602 37,000  Level Memphis Center
Tue 02:03:55 PM 35.9714 -93.1458 109° East 524 603 37,000  Level Memphis Center
Tue 02:04:57 PM 35.9125 -92.9381 109° East 528 608 37,000  Level Memphis Center
Tue 02:05:59 PM 35.8628 -92.7656 110° East 530 610 37,000  Level Memphis Center
Tue 02:07:01 PM 35.8122 -92.5939 110° East 530 610 37,000  Level Memphis Center
Tue 02:08:03 PM 35.7619 -92.4214 110° East 532 612 37,000  Level Memphis Center
Tue 02:09:05 PM 35.7108 -92.2486 110° East 533 613 37,000  Level Memphis Center
Tue 02:10:07 PM 35.6600 -92.0756 110° East 536 617 37,000  Level Memphis Center
Tue 02:11:09 PM 35.6108 -91.9014 109° East 539 620 37,000  Level Memphis Center
Tue 02:12:11 PM 35.5586 -91.7275 110° East 543 625 37,000  Level Memphis Center
Tue 02:13:13 PM 35.4942 -91.5161 110° East 548 631 37,000  Level Memphis Center
Tue 02:14:15 PM 35.4417 -91.3422 110° East 549 632 37,000  Level Memphis Center
Tue 02:15:17 PM 35.3886 -91.1636 110° East 552 635 37,000  Level Memphis Center
Tue 02:16:19 PM 35.3331 -90.9858 111° Southeast 554 638 37,000  Level Memphis Center
Tue 02:17:21 PM 35.2769 -90.8094 111° Southeast 552 635 37,000  Level Memphis Center
Tue 02:18:23 PM 35.2122 -90.6044 111° Southeast 550 633 37,000  Level Memphis Center
Tue 02:19:25 PM 35.1561 -90.4278 111° Southeast 552 635 37,000  Level Memphis Center
Tue 02:20:27 PM 35.1008 -90.2511 111° Southeast 551 634 37,000  Level Memphis Center
Tue 02:21:29 PM 35.0458 -90.0797 111° Southeast 552 635 37,000  Level Memphis Center
Tue 02:22:31 PM 35.0022 -89.8969 106° East 563 648 37,000  Level Memphis Center
Tue 02:23:33 PM 34.9753 -89.7142 100° East 559 643 37,000  Level Memphis Center
Tue 02:24:35 PM 34.9433 -89.4967 100° East 552 635 37,000  Level Memphis Center
Tue 02:25:38 PM 34.9164 -89.3097 100° East 556 640 37,000  Level Memphis Center
Tue 02:26:40 PM 34.8892 -89.1367 101° East 555 639 37,000  Level Memphis Center
Tue 02:27:42 PM 34.8594 -88.9494 101° East 558 642 37,000  Level Memphis Center
Tue 02:28:44 PM 34.8253 -88.7303 101° East 560 644 37,000 -484 Level Memphis Center
Tue 02:29:46 PM 34.7967 -88.5436 101° East 558 642 36,000 -968 Descending Memphis Center
Tue 02:30:48 PM 34.7681 -88.3664 101° East 558 642 35,000 -484 Descending Memphis Center
Tue 02:31:50 PM 34.7375 -88.1681 101° East 562 647 35,000  Level Memphis Center
Tue 02:32:52 PM 34.7075 -87.9794 101° East 562 647 35,000 -484 Level Memphis Center
Tue 02:33:54 PM 34.6769 -87.7908 101° East 564 649 34,000 -968 Descending Memphis Center
Tue 02:34:56 PM 34.6461 -87.6003 101° East 569 655 33,000 -484 Descending Memphis Center
Tue 02:35:58 PM 34.6139 -87.4111 102° East 570 656 33,000  Level Memphis Center
Tue 02:37:00 PM 34.5739 -87.1983 103° East 555 639 33,000  Level Memphis Center
Tue 02:38:02 PM 34.5381 -87.0142 103° East 555 639 33,000  Level Memphis Center
Tue 02:39:04 PM 34.5031 -86.8322 103° East 559 643 33,000 -484 Level Memphis Center
Tue 02:40:06 PM 34.4603 -86.6522 106° East 563 648 32,000 -968 Descending Memphis Center
Tue 02:41:08 PM 34.4028 -86.4767 112° Southeast 561 646 31,000 -1,296 Descending Memphis Center
Tue 02:42:11 PM 34.3483 -86.3019 111° Southeast 557 641 29,300 -2,400 Descending Memphis Center
Tue 02:43:13 PM 34.2817 -86.0914 111° Southeast 558 642 26,000 -2,585 Descending Memphis Center
Tue 02:44:21 PM 34.2267 -85.9131 110° East 554 638 23,700 -2,250 Descending Atlanta Center
Tue 02:45:21 PM 34.1731 -85.7336 110° East 525 604 21,200 -2,100 Descending Atlanta Center
Tue 02:46:21 PM 34.1289 -85.5972 111° Southeast 503 579 19,500 -1,850 Descending Atlanta Center
Tue 02:47:21 PM 34.0783 -85.4533 113° Southeast 476 548 17,500 -1,850 Descending Atlanta Center
Tue 02:48:21 PM 34.0400 -85.3272 110° East 427 491 15,800 -1,600 Descending Atlanta Center
Tue 02:49:21 PM 33.9994 -85.2139 113° Southeast 382 440 14,300 -1,400 Descending Atlanta Center
Tue 02:50:21 PM 33.9650 -85.1133 112° Southeast 340 391 13,000 -650 Descending Atlanta Center
Tue 02:51:21 PM 33.9197 -85.0100 118° Southeast 340 391 13,000  Level Atlanta Center
Tue 02:52:21 PM 33.8747 -84.9119 119° Southeast 335 386 13,000  Level Atlanta Center
Tue 02:53:04 PM 33.8167 -84.8333 132° Southeast 332 382 13,000  Level Atlanta TRACON
Tue 02:54:04 PM 33.7667 -84.7500 126° Southeast 336 387 13,000 -250 Level Atlanta TRACON
Tue 02:55:04 PM 33.7333 -84.6500 112° Southeast 342 394 12,500 -850 Descending Atlanta TRACON
Tue 02:56:04 PM 33.7333 -84.5500 90° East 313 360 11,300 -700 Descending Atlanta TRACON
Tue 02:57:04 PM 33.7333 -84.4500 90° East 292 336 11,100 -250 Descending Atlanta TRACON
Tue 02:58:04 PM 33.7333 -84.3500 90° East 291 335 10,800 -1,100 Descending Atlanta TRACON
Tue 02:59:04 PM 33.7333 -84.2667 90° East 275 316 8,900 -1,842 Descending Atlanta TRACON
Tue 02:59:58 PM 33.7333 -84.1833 90° East 258 297 7,300 -1,737 Descending Atlanta TRACON
Tue 03:00:58 PM 33.7333 -84.1000 90° East 258 297 5,600 -1,100 Descending Atlanta TRACON
Tue 03:01:58 PM 33.6667 -84.0833 168° South 230 265 5,100 -238 Descending Atlanta TRACON
Tue 03:03:04 PM 33.6500 -84.1500 253° West 176 203 5,100 -250 Level Atlanta TRACON
Tue 03:03:58 PM 33.6500 -84.2000 270° West 176 203 4,600 -850 Descending Atlanta TRACON
Tue 03:05:04 PM 33.6500 -84.2667 270° West 179 206 3,400 -1,000 Descending Atlanta TRACON
Tue 03:05:58 PM 33.6500 -84.3167 270° West 167 192 2,600 -789 Descending Atlanta TRACON
Tue 03:06:58 PM 33.6500 -84.3667 270° West 116 133 1,900 -650 Descending Atlanta TRACON
Tue 03:07:58 PM 33.6500 -84.4000 270° West 113 130 1,300 -600 Descending Atlanta TRACON

Login

Don't have an account? Register now (free) for customized features, flight alerts, and more!